Time;durP1;ratioP1;P1;durP2;ratioP2;P2;SDS_P1;SDS_P2;PMS_P1;PMS_P2;Temp;Humidity;BMP_temperature;BMP_pressure;BME280_temperature;BME280_humidity;BME280_pressure;Samples;Min_cycle;Max_cycle;Signal;HPM_P1;HPM_P2
2022/09/15 00:01:02;;;;;;;3.25;2.08;;;;;;;20.11;81.00;99105.44;5031629;28;20038;-61
2022/09/15 00:03:28;;;;;;;2.30;1.90;;;;;;;20.09;81.16;99095.03;5017601;28;20037;-60
2022/09/15 00:05:54;;;;;;;2.95;1.90;;;;;;;20.11;80.96;99093.00;5013958;28;20503;-61
2022/09/15 00:08:24;;;;;;;2.00;1.77;;;;;;;20.13;81.02;99093.63;4991493;28;20044;-61
2022/09/15 00:10:57;;;;;;;2.72;1.75;;;;;;;20.11;81.05;99093.00;5020565;28;20029;-60
2022/09/15 00:13:25;;;;;;;2.25;1.27;;;;;;;20.12;81.18;99091.16;5024763;28;20037;-60
2022/09/15 00:15:52;;;;;;;2.03;1.50;;;;;;;20.11;80.76;99095.66;5023827;28;20033;-61
2022/09/15 00:18:20;;;;;;;3.90;1.70;;;;;;;20.12;80.77;99086.69;5025467;28;20048;-60
2022/09/15 00:20:47;;;;;;;6.47;1.52;;;;;;;20.12;80.90;99092.00;5025494;28;20051;-61
2022/09/15 00:23:14;;;;;;;2.72;2.10;;;;;;;20.11;80.85;99093.00;5025476;28;20042;-60
2022/09/15 00:25:52;;;;;;;2.30;1.45;;;;;;;20.11;80.94;99079.75;5045984;28;20045;-61
2022/09/15 00:28:20;;;;;;;2.03;1.67;;;;;;;20.14;80.91;99081.22;5017799;28;20036;-60
2022/09/15 00:30:49;;;;;;;2.10;1.80;;;;;;;20.12;80.73;99081.41;5018767;28;20045;-61
2022/09/15 00:33:18;;;;;;;1.63;1.52;;;;;;;20.12;80.74;99081.41;5024971;28;20249;-60
2022/09/15 00:35:50;;;;;;;3.58;1.58;;;;;;;20.11;81.12;99071.78;5027908;28;20041;-61
2022/09/15 00:38:17;;;;;;;3.83;1.58;;;;;;;20.11;80.63;99074.44;5016873;28;20044;-60
2022/09/15 00:40:49;;;;;;;1.73;1.27;;;;;;;20.12;80.76;99020.44;5012669;28;20037;-60
2022/09/15 00:43:41;;;;;;;1.50;1.30;;;;;;;20.14;80.95;99084.66;5022114;28;20045;-60
2022/09/15 00:46:08;;;;;;;2.92;1.55;;;;;;;20.14;81.27;99089.16;5018392;28;20037;-61
2022/09/15 00:48:36;;;;;;;3.30;1.50;;;;;;;20.12;80.78;99081.41;5020524;28;20041;-60
2022/09/15 00:51:03;;;;;;;1.52;1.42;;;;;;;20.11;80.92;99087.69;5016057;28;20041;-60
2022/09/15 00:53:31;;;;;;;2.60;1.48;;;;;;;20.12;80.66;99086.69;5032723;28;20037;-61
2022/09/15 00:56:01;;;;;;;5.85;1.80;;;;;;;20.11;80.81;99100.94;5021913;28;20042;-60
2022/09/15 00:58:37;;;;;;;2.85;2.08;;;;;;;20.14;80.50;99095.28;5022431;28;20046;-60
2022/09/15 01:01:06;;;;;;;4.38;1.50;;;;;;;20.15;80.88;99093.44;5007057;28;20514;-61
2022/09/15 01:03:34;;;;;;;2.28;1.58;;;;;;;20.13;81.14;99085.66;5022390;28;20056;-60
2022/09/15 01:06:08;;;;;;;1.85;1.20;;;;;;;20.12;80.87;99085.84;5018891;28;20026;-61
2022/09/15 01:08:52;;;;;;;3.13;1.73;;;;;;;20.14;80.79;99089.97;5028438;28;20384;-61
2022/09/15 01:11:21;;;;;;;2.65;1.67;;;;;;;20.13;81.00;99082.22;5021015;28;20044;-60
2022/09/15 01:13:50;;;;;;;2.08;1.30;;;;;;;20.13;81.00;99077.72;5020247;28;20025;-60
2022/09/15 01:16:41;;;;;;;4.25;1.88;;;;;;;20.13;80.80;99085.66;5023562;28;20064;-60
2022/09/15 01:19:31;;;;;;;2.35;1.65;;;;;;;20.13;80.71;99085.66;5019390;28;20030;-60
2022/09/15 01:22:23;;;;;;;3.47;1.55;;;;;;;20.14;80.71;99079.38;5020778;28;20052;-61
2022/09/15 01:25:17;;;;;;;2.03;1.77;;;;;;;20.14;80.72;99078.56;5016801;28;20042;-60
2022/09/15 01:28:29;;;;;;;3.20;1.25;;;;;;;20.12;80.67;99081.41;5021285;28;20403;-60
2022/09/15 01:31:20;;;;;;;2.58;1.90;;;;;;;20.12;80.57;99075.25;5027635;28;20033;-60
2022/09/15 01:33:57;;;;;;;3.03;1.63;;;;;;;20.13;80.41;99074.25;5015259;28;20034;-61
2022/09/15 01:36:47;;;;;;;4.55;1.30;;;;;;;20.13;80.86;99076.91;5023061;28;20046;-61
2022/09/15 01:39:27;;;;;;;2.63;1.67;;;;;;;20.11;80.96;99074.44;5024867;28;20554;-61
2022/09/15 01:42:00;;;;;;;2.10;1.40;;;;;;;20.12;80.78;99073.44;5018928;28;20041;-60
2022/09/15 01:44:31;;;;;;;2.42;1.52;;;;;;;20.11;80.52;99070.97;5008233;28;20034;-61
2022/09/15 01:47:03;;;;;;;1.65;1.35;;;;;;;20.11;81.00;99074.44;5016146;28;20384;-60
2022/09/15 01:49:44;;;;;;;2.13;1.65;;;;;;;20.08;80.82;99064.22;5008631;28;20042;-60
2022/09/15 01:52:17;;;;;;;3.42;2.13;;;;;;;20.11;81.18;99068.34;5023046;28;20064;-60
2022/09/15 01:54:47;;;;;;;5.00;2.03;;;;;;;20.09;80.60;99065.06;5020770;28;20037;-60
2022/09/15 01:57:20;;;;;;;2.88;1.95;;;;;;;20.11;80.88;99063.84;4992913;28;20045;-60
2022/09/15 01:59:48;;;;;;;;;;;;;;;20.11;80.52;99069.16;5028350;28;20040;-60
2022/09/15 02:02:24;;;;;;;2.00;1.48;;;;;;;20.12;80.39;99064.66;5015618;28;19913;-60
2022/09/15 02:04:58;;;;;;;3.03;1.83;;;;;;;20.11;80.39;99068.34;5027841;28;20038;-61
2022/09/15 02:07:56;;;;;;;1.90;1.20;;;;;;;20.10;80.68;99062.19;5018865;28;20044;-61
2022/09/15 02:10:33;;;;;;;3.33;1.38;;;;;;;20.10;80.54;99059.53;5006243;28;20042;-60
2022/09/15 02:13:24;;;;;;;3.42;1.70;;;;;;;20.10;80.74;99062.19;5018569;28;20420;-61
2022/09/15 02:15:58;;;;;;;4.25;1.48;;;;;;;20.09;80.55;99059.75;5027311;28;20037;-60
2022/09/15 02:18:44;;;;;;;1.88;1.20;;;;;;;20.08;80.34;99053.63;5019172;28;20045;-60
2022/09/15 02:21:35;;;;;;;2.65;1.60;;;;;;;20.09;80.10;99051.81;5020709;28;20045;-60
2022/09/15 02:24:10;;;;;;;1.63;1.25;;;;;;;20.12;80.50;99056.69;5013402;28;20037;-60
2022/09/15 02:26:41;;;;;;;1.55;1.33;;;;;;;20.11;80.02;99050.59;4992436;28;20403;-60
2022/09/15 02:29:14;;;;;;;1.58;1.33;;;;;;;20.10;80.22;99062.19;5023375;28;20037;-60
2022/09/15 02:31:41;;;;;;;2.00;1.48;;;;;;;20.09;80.45;99049.97;5028978;28;20400;-61
2022/09/15 02:34:21;;;;;;;2.67;2.25;;;;;;;20.08;80.25;99050.16;5016804;28;20033;-61
2022/09/15 02:36:52;;;;;;;2.28;1.30;;;;;;;20.10;80.42;99051.59;5016210;28;20599;-60
2022/09/15 02:39:22;;;;;;;3.88;1.73;;;;;;;20.08;80.63;99048.31;5017012;28;20049;-60
2022/09/15 02:41:52;;;;;;;2.15;1.45;;;;;;;20.09;80.68;99049.97;5023686;28;20484;-61
2022/09/15 02:44:19;;;;;;;1.98;1.45;;;;;;;20.09;80.27;99054.47;5010082;28;20042;-61
2022/09/15 02:46:45;;;;;;;2.40;1.42;;;;;;;20.10;80.48;99051.59;5011786;28;20373;-61
2022/09/15 02:49:12;;;;;;;3.70;1.25;;;;;;;20.08;80.11;99047.50;5026578;28;20033;-61
2022/09/15 02:51:38;;;;;;;3.40;1.70;;;;;;;20.07;80.64;99049.34;5001525;28;20045;-61
2022/09/15 02:54:05;;;;;;;2.00;1.83;;;;;;;20.07;80.76;99041.38;5022674;28;20487;-61
2022/09/15 02:56:31;;;;;;;2.05;0.88;;;;;;;20.07;80.28;99048.50;5016329;28;20048;-61
2022/09/15 02:58:57;;;;;;;1.30;1.20;;;;;;;20.09;80.47;99051.81;5014129;28;20038;-61
2022/09/15 03:01:33;;;;;;;1.73;1.40;;;;;;;20.06;80.25;99047.69;5021010;28;20049;-60
2022/09/15 03:04:04;;;;;;;1.63;1.05;;;;;;;20.08;80.51;99047.50;5026405;28;20033;-60
2022/09/15 03:06:33;;;;;;;1.58;1.48;;;;;;;20.07;80.41;99052.00;5017522;28;20042;-61
2022/09/15 03:09:03;;;;;;;2.30;1.13;;;;;;;20.07;80.46;99051.16;5008672;28;20026;-61
2022/09/15 03:11:32;;;;;;;1.45;1.35;;;;;;;20.07;80.14;99046.69;5025761;28;20052;-61
2022/09/15 03:14:04;;;;;;;1.35;1.10;;;;;;;20.06;80.23;99055.63;5025401;28;20033;-60
2022/09/15 03:16:33;;;;;;;2.60;1.55;;;;;;;20.07;80.20;99053.78;5027896;28;20038;-61
2022/09/15 03:18:59;;;;;;;1.20;1.00;;;;;;;20.07;80.47;99043.19;5017489;28;20034;-61
2022/09/15 03:21:29;;;;;;;1.45;1.20;;;;;;;20.06;80.00;99037.09;5016869;28;20037;-60
2022/09/15 03:23:57;;;;;;;1.77;1.58;;;;;;;20.06;80.35;99039.75;5017811;28;20399;-61
2022/09/15 03:26:23;;;;;;;3.25;1.40;;;;;;;20.06;80.21;99033.63;5025674;28;20049;-60
2022/09/15 03:28:52;;;;;;;2.38;1.77;;;;;;;20.05;80.22;99042.56;5030171;28;20036;-60
2022/09/15 03:31:18;;;;;;;1.52;1.15;;;;;;;20.05;80.40;99037.28;5017869;28;20433;-60
2022/09/15 03:33:45;;;;;;;1.80;1.33;;;;;;;20.06;80.21;99049.53;5026952;28;20491;-60
2022/09/15 03:36:11;;;;;;;3.15;2.08;;;;;;;20.07;80.00;99044.03;5007563;28;20046;-60
2022/09/15 03:38:37;;;;;;;3.10;1.52;;;;;;;20.06;80.33;99044.22;5062150;22;20409;-67
2022/09/15 03:41:09;;;;;;;2.40;1.65;;;;;;;20.04;80.57;99043.59;5060085;28;20029;-67
2022/09/15 03:43:36;;;;;;;2.38;1.90;;;;;;;20.04;80.52;99041.75;5033058;28;20044;-67
2022/09/15 03:46:09;;;;;;;2.58;1.13;;;;;;;20.06;80.54;99042.38;5072167;28;20040;-67
2022/09/15 03:48:39;;;;;;;3.60;1.58;;;;;;;20.05;80.69;99034.63;5068860;28;20032;-67
2022/09/15 03:51:09;;;;;;;4.30;1.55;;;;;;;20.04;80.59;99036.47;5059709;28;20037;-67
2022/09/15 03:53:41;;;;;;;4.53;1.67;;;;;;;20.04;80.39;99033.81;5030241;28;20038;-67
2022/09/15 03:56:20;;;;;;;2.28;1.42;;;;;;;20.04;80.38;99035.66;5044246;28;20037;-67
2022/09/15 03:58:46;;;;;;;1.90;1.20;;;;;;;20.05;80.65;99031.97;5058708;28;20041;-67
2022/09/15 04:01:12;;;;;;;1.63;1.40;;;;;;;20.05;80.38;99038.09;5035224;28;20414;-67
2022/09/15 04:03:46;;;;;;;3.92;1.67;;;;;;;20.05;80.18;99045.22;5053001;28;20475;-67
2022/09/15 04:06:19;;;;;;;1.95;1.42;;;;;;;20.06;80.38;99044.22;5064786;28;20041;-67
2022/09/15 04:08:46;;;;;;;1.88;1.40;;;;;;;20.04;80.44;99039.13;5026667;28;20380;-67
2022/09/15 04:11:16;;;;;;;3.85;1.20;;;;;;;20.03;80.03;99040.13;5060520;28;20035;-67
2022/09/15 04:13:48;;;;;;;2.10;1.57;;;;;;;20.03;80.01;99044.59;5031112;28;20036;-67
2022/09/15 04:16:19;;;;;;;2.00;1.65;;;;;;;20.04;80.40;99031.16;5050587;28;20044;-67
2022/09/15 04:18:48;;;;;;;3.60;1.90;;;;;;;20.04;80.29;99036.47;5051435;28;20047;-67
2022/09/15 04:21:20;;;;;;;1.85;1.75;;;;;;;20.05;80.23;99043.38;5034784;28;20048;-67
2022/09/15 04:23:46;;;;;;;2.55;1.42;;;;;;;20.05;80.39;99043.38;5052304;28;20029;-67
2022/09/15 04:26:23;;;;;;;1.95;1.75;;;;;;;20.04;80.43;99051.56;5051464;28;20040;-67
2022/09/15 04:28:51;;;;;;;1.92;1.67;;;;;;;20.05;80.02;99088.44;5055259;28;20108;-67
2022/09/15 04:31:20;;;;;;;2.75;1.50;;;;;;;20.04;80.14;99052.38;4998815;28;20187;-67
2022/09/15 04:33:50;;;;;;;3.05;2.13;;;;;;;20.07;80.55;99056.44;5040271;28;20044;-67
2022/09/15 04:36:22;;;;;;;2.90;2.05;;;;;;;20.06;80.18;99060.94;5050924;28;20033;-67
2022/09/15 04:38:50;;;;;;;1.95;1.48;;;;;;;20.04;80.45;99052.38;5047539;28;20506;-67
2022/09/15 04:41:22;;;;;;;3.17;1.80;;;;;;;20.05;80.06;99051.34;5046379;28;20037;-67
2022/09/15 04:43:48;;;;;;;6.47;1.77;;;;;;;20.05;80.10;99059.28;5051950;28;20040;-67
2022/09/15 04:46:15;;;;;;;2.55;1.80;;;;;;;20.01;80.16;99052.75;5020932;28;20056;-67
2022/09/15 04:48:50;;;;;;;2.42;1.55;;;;;;;20.03;80.27;99052.56;5039817;28;20037;-67
2022/09/15 04:51:20;;;;;;;3.13;1.60;;;;;;;20.05;80.23;99053.19;5028653;28;20483;-67
2022/09/15 04:53:50;;;;;;;2.42;1.75;;;;;;;20.06;80.31;99062.78;5037149;28;21652;-67
2022/09/15 04:56:19;;;;;;;2.13;1.58;;;;;;;20.04;80.21;99060.31;5058464;28;20033;-67
2022/09/15 04:58:57;;;;;;;3.58;1.75;;;;;;;20.06;80.45;99054.84;5019630;28;20041;-67
2022/09/15 05:01:28;;;;;;;4.35;2.15;;;;;;;20.06;80.18;99060.94;5026442;28;20028;-67
2022/09/15 05:03:57;;;;;;;2.85;2.13;;;;;;;20.05;79.96;99059.28;5036045;28;20029;-67
2022/09/15 05:06:28;;;;;;;1.65;1.38;;;;;;;20.04;80.09;99059.50;5019297;28;20407;-67
2022/09/15 05:08:56;;;;;;;5.35;1.33;;;;;;;20.05;80.04;99064.59;5018150;28;20044;-66
2022/09/15 05:11:25;;;;;;;2.55;1.90;;;;;;;20.05;80.13;99055.81;5051968;28;20033;-67
2022/09/15 05:13:55;;;;;;;3.15;1.92;;;;;;;20.04;80.46;99065.63;5055228;28;20509;-67
2022/09/15 05:16:23;;;;;;;10.05;3.35;;;;;;;20.05;80.22;99063.78;5053979;28;20033;-67
2022/09/15 05:18:53;;;;;;;2.53;1.85;;;;;;;20.05;80.11;99063.78;5057441;28;20395;-67
2022/09/15 05:21:23;;;;;;;2.17;1.42;;;;;;;20.05;80.57;99074.38;5051846;28;20059;-67
2022/09/15 05:23:53;;;;;;;2.35;2.15;;;;;;;20.06;80.68;99071.53;5039283;28;20036;-67
2022/09/15 05:26:25;;;;;;;2.03;1.70;;;;;;;20.04;80.23;99073.56;5031739;28;20043;-67
2022/09/15 05:28:54;;;;;;;2.97;2.38;;;;;;;20.03;80.47;99073.75;5033460;28;20029;-67
2022/09/15 05:31:32;;;;;;;3.17;1.77;;;;;;;20.02;80.37;99072.94;5009114;28;20402;-67
2022/09/15 05:34:03;;;;;;;2.65;1.98;;;;;;;20.05;80.76;99080.50;5040101;28;20040;-67
2022/09/15 05:36:32;;;;;;;4.57;1.38;;;;;;;20.04;80.23;99081.53;5049186;28;20036;-67
2022/09/15 05:38:59;;;;;;;3.40;2.10;;;;;;;20.05;80.39;99082.34;5038717;28;20387;-66
2022/09/15 05:41:27;;;;;;;1.75;1.42;;;;;;;20.04;80.23;99083.38;5027811;28;20044;-67
2022/09/15 05:43:58;;;;;;;1.88;1.50;;;;;;;20.05;80.81;99083.16;5050318;28;20108;-66
2022/09/15 05:46:25;;;;;;;1.95;1.73;;;;;;;20.04;80.52;99076.22;5024388;28;20509;-67
2022/09/15 05:48:54;;;;;;;4.72;1.80;;;;;;;20.05;80.38;99079.69;5022489;28;20036;-67
2022/09/15 05:51:21;;;;;;;1.60;1.50;;;;;;;20.04;80.11;99089.47;5008779;28;20041;-67
2022/09/15 05:53:50;;;;;;;3.33;1.48;;;;;;;20.06;80.20;99091.94;5032512;28;20398;-67
2022/09/15 05:56:17;;;;;;;1.55;1.38;;;;;;;20.04;80.16;99086.81;5041545;28;20389;-67
2022/09/15 05:58:47;;;;;;;2.13;1.52;;;;;;;20.04;80.32;99089.47;5012521;28;20041;-67
2022/09/15 06:01:19;;;;;;;1.65;1.45;;;;;;;20.06;79.99;99097.25;5028110;28;20055;-67
2022/09/15 06:03:50;;;;;;;2.10;1.85;;;;;;;20.06;79.93;99092.75;5034246;28;20044;-67
2022/09/15 06:06:17;;;;;;;2.42;1.63;;;;;;;20.06;80.07;99091.94;5039382;28;20044;-67
2022/09/15 06:08:47;;;;;;;2.13;1.63;;;;;;;20.06;79.84;99092.75;5043007;28;20029;-67
2022/09/15 06:11:21;;;;;;;4.97;1.52;;;;;;;20.07;80.41;99099.69;5050919;28;20044;-67
2022/09/15 06:13:48;;;;;;;1.52;1.40;;;;;;;20.05;80.36;99096.41;5054131;28;20040;-68
2022/09/15 06:16:23;;;;;;;3.33;1.65;;;;;;;20.06;80.47;99106.00;5048003;28;20045;-67
2022/09/15 06:18:57;;;;;;;2.30;1.63;;;;;;;20.07;80.20;99097.06;5035117;28;20411;-67
2022/09/15 06:21:28;;;;;;;2.58;1.20;;;;;;;20.08;80.55;99103.16;5047618;28;20509;-67
2022/09/15 06:24:05;;;;;;;1.33;1.20;;;;;;;20.08;80.30;99106.63;5055191;28;20033;-71
2022/09/15 06:26:32;;;;;;;3.33;1.23;;;;;;;20.07;80.22;99115.59;5053072;28;20043;-68
2022/09/15 06:29:00;;;;;;;2.90;1.77;;;;;;;20.12;80.26;99118.50;5041204;28;20230;-69
2022/09/15 06:31:31;;;;;;;3.72;1.45;;;;;;;19.98;85.17;99122.03;5029437;28;20383;-70
2022/09/15 06:34:46;;;;;;;1.83;1.20;;;;;;;20.09;83.74;99132.13;5045773;28;20419;-66
2022/09/15 06:37:14;;;;;;;1.92;1.40;;;;;;;20.08;82.54;99125.19;5027387;28;20041;-66
2022/09/15 06:39:44;;;;;;;2.00;1.20;;;;;;;20.11;82.51;99127.47;5030124;28;20037;-66
2022/09/15 06:42:14;;;;;;;2.40;1.40;;;;;;;20.15;82.28;99133.19;5047713;28;20033;-66
2022/09/15 06:44:43;;;;;;;3.92;1.45;;;;;;;20.17;82.17;99132.00;5047964;28;20037;-66
2022/09/15 06:47:14;;;;;;;1.10;0.93;;;;;;;20.19;82.16;99137.13;5046017;28;20487;-66
2022/09/15 06:49:42;;;;;;;;;;;;;;;20.20;81.57;99128.16;5044796;28;20033;-66
2022/09/15 06:52:08;;;;;;;1.20;1.10;;;;;;;20.20;81.52;99130.00;5045153;28;20366;-66
2022/09/15 06:54:34;;;;;;;1.65;1.15;;;;;;;20.20;81.44;99127.34;5047754;28;20399;-66
2022/09/15 06:57:08;;;;;;;1.85;0.80;;;;;;;20.19;81.38;99129.19;5045803;28;20416;-66
2022/09/15 06:59:34;;;;;;;1.63;0.85;;;;;;;20.20;81.44;99140.59;5048259;28;20403;-66
2022/09/15 07:02:03;;;;;;;0.98;0.88;;;;;;;20.18;81.02;99143.44;5045129;28;20029;-66
2022/09/15 07:04:37;;;;;;;2.90;1.02;;;;;;;20.17;81.44;99147.94;5048595;28;20032;-66
2022/09/15 07:07:05;;;;;;;1.63;1.13;;;;;;;20.13;81.63;99149.28;5046150;28;20025;-66
2022/09/15 07:09:31;;;;;;;2.85;0.82;;;;;;;20.08;81.76;99149.03;5044429;28;20040;-66
2022/09/15 07:11:57;;;;;;;1.70;0.90;;;;;;;20.03;81.99;99162.03;5044264;28;20040;-66
2022/09/15 07:14:26;;;;;;;1.30;0.93;;;;;;;20.03;82.28;99161.22;5046115;28;20029;-66
2022/09/15 07:16:52;;;;;;;1.55;0.82;;;;;;;19.98;81.85;99167.06;5044787;28;20046;-66
2022/09/15 07:19:23;;;;;;;0.85;0.60;;;;;;;19.96;81.78;99177.06;5043721;28;20052;-66
2022/09/15 07:21:51;;;;;;;1.65;0.80;;;;;;;19.93;81.79;99172.13;5044347;28;20037;-66
2022/09/15 07:24:22;;;;;;;0.55;0.50;;;;;;;19.90;81.88;99189.22;5037389;28;20502;-66
2022/09/15 07:26:53;;;;;;;2.33;0.90;;;;;;;19.87;81.42;99194.91;5045639;28;20051;-66
2022/09/15 07:29:21;;;;;;;4.00;1.48;;;;;;;19.88;81.36;99190.41;5047559;28;20029;-66
2022/09/15 07:31:48;;;;;;;1.52;0.85;;;;;;;19.87;81.00;99210.78;5045990;28;20029;-66
2022/09/15 07:34:17;;;;;;;0.88;0.70;;;;;;;19.86;80.89;99240.13;5046853;28;20029;-66
2022/09/15 07:36:46;;;;;;;3.92;1.48;;;;;;;19.82;80.21;99244.97;5046508;28;20040;-66
2022/09/15 07:39:12;;;;;;;1.75;1.00;;;;;;;19.79;80.11;99238.22;5028819;28;20220;-66
2022/09/15 07:41:42;;;;;;;1.83;1.17;;;;;;;19.79;79.53;99235.56;5045828;28;20037;-66
2022/09/15 07:44:10;;;;;;;1.40;0.82;;;;;;;19.80;79.26;99231.91;5041657;28;20021;-66
2022/09/15 07:46:36;;;;;;;1.65;0.85;;;;;;;19.77;78.39;99236.75;5033090;28;20041;-66
2022/09/15 07:49:07;;;;;;;2.72;1.50;;;;;;;19.83;78.38;99248.44;5030590;28;20033;-66
2022/09/15 07:51:33;;;;;;;3.70;1.38;;;;;;;19.88;77.89;99243.41;5029780;28;20056;-66
2022/09/15 07:54:06;;;;;;;1.25;1.15;;;;;;;19.87;77.56;99247.09;5031232;28;20025;-66
2022/09/15 07:56:32;;;;;;;3.35;1.88;;;;;;;19.91;77.48;99248.34;5031398;28;20037;-66
2022/09/15 07:59:00;;;;;;;1.73;1.38;;;;;;;19.86;77.47;99251.53;5005713;22;20045;-65
2022/09/15 08:01:29;;;;;;;2.85;1.60;;;;;;;19.86;77.15;99258.69;4976101;28;20042;-66
2022/09/15 08:03:57;;;;;;;3.33;1.40;;;;;;;19.83;77.22;99259.03;5006136;28;20026;-66
2022/09/15 08:06:26;;;;;;;1.88;1.42;;;;;;;19.84;76.97;99263.34;5008745;28;20037;-66
2022/09/15 08:08:57;;;;;;;3.10;1.67;;;;;;;19.82;76.82;99268.81;4983894;28;20405;-66
2022/09/15 08:11:28;;;;;;;2.88;2.45;;;;;;;19.82;76.71;99268.00;4978976;28;20061;-66
2022/09/15 08:13:55;;;;;;;5.88;1.67;;;;;;;19.85;76.41;99268.47;4972888;28;20405;-66
2022/09/15 08:16:23;;;;;;;4.40;1.60;;;;;;;19.93;76.39;99267.53;4975182;28;20042;-66
2022/09/15 08:18:54;;;;;;;2.22;1.63;;;;;;;19.96;76.24;99272.47;4985247;28;20043;-66
2022/09/15 08:21:23;;;;;;;3.92;1.77;;;;;;;19.86;76.23;99275.38;4982404;28;20037;-66
2022/09/15 08:23:59;;;;;;;1.33;1.23;;;;;;;19.86;76.06;99278.03;4970887;28;20027;-66
2022/09/15 08:26:30;;;;;;;3.90;1.65;;;;;;;19.83;75.59;99277.59;4973073;28;20031;-66
2022/09/15 08:28:57;;;;;;;1.98;1.60;;;;;;;19.86;75.57;99287.81;4964303;28;20046;-66
2022/09/15 08:31:23;;;;;;;4.18;1.83;;;;;;;19.88;75.31;99281.34;4971288;28;20039;-66
2022/09/15 08:33:51;;;;;;;3.53;2.05;;;;;;;19.90;75.21;99284.63;4974501;28;20042;-66
2022/09/15 08:36:21;;;;;;;1.92;1.40;;;;;;;19.84;75.28;99285.34;4969613;28;20043;-66
2022/09/15 08:38:47;;;;;;;2.47;1.83;;;;;;;19.87;75.15;99289.47;4969069;28;20042;-66
2022/09/15 08:41:18;;;;;;;2.38;1.67;;;;;;;19.79;75.28;99299.16;4971902;28;20050;-66
2022/09/15 08:44:19;;;;;;;5.55;1.70;;;;;;;19.80;75.09;99298.16;4989101;28;20039;-66
2022/09/15 08:46:55;;;;;;;;;;;;;;;19.83;74.44;99296.97;4978554;28;20050;-66
2022/09/15 08:49:27;;;;;;;7.78;1.83;;;;;;;19.83;74.58;99301.44;4967689;28;19921;-66
2022/09/15 08:52:03;;;;;;;5.22;2.38;;;;;;;19.90;74.51;99299.69;4971432;28;20058;-66
2022/09/15 08:54:33;;;;;;;2.28;1.83;;;;;;;19.91;74.50;99301.34;4964982;28;20038;-66
2022/09/15 08:57:02;;;;;;;6.63;2.05;;;;;;;19.90;74.25;99305.84;4969505;28;20473;-66
2022/09/15 08:59:37;;;;;;;4.03;1.98;;;;;;;19.91;74.12;99317.25;4979641;28;20035;-66
2022/09/15 09:02:14;;;;;;;2.90;2.47;;;;;;;19.84;74.07;99313.69;4954095;29;20485;-66
2022/09/15 09:05:09;;;;;;;2.63;1.65;;;;;;;19.84;74.06;99313.69;4967989;28;20039;-66
2022/09/15 09:08:09;;;;;;;1.75;1.50;;;;;;;19.86;73.82;99319.63;4972905;28;20043;-66
2022/09/15 09:10:37;;;;;;;2.60;1.77;;;;;;;19.91;73.53;99317.25;4973948;28;20496;-66
2022/09/15 09:13:36;;;;;;;5.05;1.75;;;;;;;19.93;73.72;99321.38;4968965;28;20508;-66
2022/09/15 09:16:04;;;;;;;4.88;1.83;;;;;;;19.89;73.14;99321.91;4970758;28;20046;-66
2022/09/15 09:18:50;;;;;;;2.38;1.83;;;;;;;19.93;73.33;99326.69;4972751;28;20045;-66
2022/09/15 09:21:22;;;;;;;2.22;1.60;;;;;;;19.95;73.30;99324.66;4973886;28;20046;-66
2022/09/15 09:23:58;;;;;;;2.47;2.13;;;;;;;19.95;73.14;99329.13;4972479;28;20389;-66
2022/09/15 09:26:29;;;;;;;2.17;1.75;;;;;;;19.96;72.81;99325.47;4970244;28;20041;-66
2022/09/15 09:28:57;;;;;;;3.03;1.98;;;;;;;19.98;72.82;99328.75;4976686;28;20485;-66
2022/09/15 09:31:28;;;;;;;4.50;1.98;;;;;;;19.95;72.70;99319.34;4975060;28;20038;-66
2022/09/15 09:34:08;;;;;;;3.22;2.22;;;;;;;19.97;72.30;99317.34;4968231;28;20034;-66
2022/09/15 09:36:35;;;;;;;2.45;2.22;;;;;;;20.03;72.10;99330.84;4963376;28;20071;-66
2022/09/15 09:39:04;;;;;;;3.63;2.25;;;;;;;19.99;72.27;99328.56;5003174;22;20042;-60
2022/09/15 09:41:36;;;;;;;3.10;2.28;;;;;;;19.98;72.40;99326.94;4994671;28;20026;-60
2022/09/15 09:44:05;;;;;;;2.60;1.80;;;;;;;19.97;72.14;99324.47;4987675;28;20041;-60
2022/09/15 09:46:34;;;;;;;2.13;1.88;;;;;;;19.94;71.91;99335.44;4992646;28;20042;-60
2022/09/15 09:49:22;;;;;;;5.50;2.05;;;;;;;19.93;72.00;99331.97;4994930;28;20045;-60
2022/09/15 09:51:58;;;;;;;3.05;2.15;;;;;;;19.91;71.77;99338.44;4976038;28;20042;-60
2022/09/15 09:54:27;;;;;;;2.25;2.03;;;;;;;19.90;72.07;99336.78;5008040;28;20037;-59
2022/09/15 09:56:55;;;;;;;2.88;1.85;;;;;;;19.92;72.06;99343.56;5003371;28;20044;-60
2022/09/15 09:59:41;;;;;;;3.58;1.75;;;;;;;19.92;72.03;99345.41;5009369;28;20037;-59
2022/09/15 10:02:10;;;;;;;3.03;2.17;;;;;;;19.93;71.80;99347.03;5009144;28;20388;-59
2022/09/15 10:04:41;;;;;;;3.70;1.75;;;;;;;19.91;72.03;99354.34;5009427;28;20030;-59
2022/09/15 10:07:08;;;;;;;4.78;2.35;;;;;;;19.90;72.40;99355.34;4971329;28;20042;-59
2022/09/15 10:09:38;;;;;;;2.72;1.90;;;;;;;19.90;72.22;99364.13;4985887;28;20034;-59
2022/09/15 10:12:06;;;;;;;2.30;1.70;;;;;;;19.89;72.84;99359.84;5011303;28;20030;-59
2022/09/15 10:14:39;;;;;;;2.15;1.58;;;;;;;19.86;73.17;99364.66;4976914;28;20033;-59
2022/09/15 10:17:09;;;;;;;4.10;2.47;;;;;;;19.87;73.30;99361.03;4986379;28;20061;-59
2022/09/15 10:19:44;;;;;;;4.65;2.00;;;;;;;19.86;73.75;99364.66;4999628;28;20046;-59
2022/09/15 10:22:27;;;;;;;4.47;1.70;;;;;;;19.87;73.37;99361.84;4962166;28;20046;-59
2022/09/15 10:24:53;;;;;;;2.17;2.00;;;;;;;19.92;73.49;99361.31;4975195;28;20038;-59
2022/09/15 10:27:30;;;;;;;6.68;1.95;;;;;;;19.96;72.81;99367.88;4996669;28;20040;-59
2022/09/15 10:30:18;;;;;;;1.67;1.58;;;;;;;20.01;72.97;99360.19;4995314;28;20029;-60
2022/09/15 10:32:44;;;;;;;2.88;2.20;;;;;;;20.05;72.51;99358.00;5005123;28;20042;-60
2022/09/15 10:35:13;;;;;;;2.35;1.67;;;;;;;20.12;71.82;99362.41;5010244;28;20030;-59
2022/09/15 10:38:10;;;;;;;2.53;2.33;;;;;;;20.16;71.90;99371.63;4987206;28;20049;-59
2022/09/15 10:40:59;;;;;;;3.83;1.60;;;;;;;20.20;71.67;99371.25;4984747;28;20038;-59
2022/09/15 10:44:00;;;;;;;3.97;2.63;;;;;;;20.16;72.30;99374.28;4972044;28;20037;-59
2022/09/15 10:46:47;;;;;;;3.00;1.63;;;;;;;20.11;71.64;99371.34;4987790;28;20038;-60
2022/09/15 10:49:38;;;;;;;3.40;1.98;;;;;;;20.16;71.45;99368.16;5004796;28;20041;-59
2022/09/15 10:52:10;;;;;;;2.22;1.80;;;;;;;20.08;71.55;99369.06;5001456;28;20041;-59
2022/09/15 10:55:27;;;;;;;1.63;1.50;;;;;;;20.16;71.31;99374.28;5008405;28;20105;-60
2022/09/15 10:58:28;;;;;;;1.83;1.40;;;;;;;20.15;70.95;99369.16;4961793;28;21397;-55
2022/09/15 11:01:24;;;;;;;2.95;2.10;;;;;;;20.15;71.10;99374.44;4987620;28;20423;-59
2022/09/15 11:04:11;;;;;;;9.88;2.28;;;;;;;20.20;70.63;99372.06;5010591;28;20029;-59
2022/09/15 11:06:43;;;;;;;2.38;1.92;;;;;;;20.20;70.42;99381.88;5008725;28;20443;-59
2022/09/15 11:09:25;;;;;;;3.33;2.40;;;;;;;20.15;70.90;99372.63;4991087;28;20038;-59
2022/09/15 11:12:15;;;;;;;1.75;1.48;;;;;;;20.18;70.33;99377.56;5009682;28;20076;-59
2022/09/15 11:14:59;;;;;;;2.10;1.90;;;;;;;20.18;70.50;99372.25;4993929;28;20058;-59
2022/09/15 11:17:42;;;;;;;;;;;;;;;20.20;70.47;99380.03;5011890;28;20045;-58
2022/09/15 11:20:19;;;;;;;3.65;1.60;;;;;;;20.11;70.22;99373.19;5011875;28;20268;-59
2022/09/15 11:23:14;;;;;;;2.67;1.48;;;;;;;20.14;70.18;99372.81;5015059;28;20377;-59
2022/09/15 11:25:49;;;;;;;1.48;1.23;;;;;;;20.23;70.09;99381.50;5015382;28;20038;-59
2022/09/15 11:28:22;;;;;;;3.13;1.70;;;;;;;20.29;69.85;99375.44;5014826;28;20034;-59
2022/09/15 11:31:08;;;;;;;3.13;1.40;;;;;;;20.19;70.03;99383.69;4987051;28;20044;-59
2022/09/15 11:33:40;;;;;;;3.63;2.33;;;;;;;20.13;69.53;99379.13;5014993;28;20042;-59
2022/09/15 11:36:41;;;;;;;1.40;1.30;;;;;;;20.14;69.98;99380.78;5014771;28;20033;-59
2022/09/15 11:39:24;;;;;;;4.55;1.95;;;;;;;20.17;69.65;99386.53;5014346;28;20049;-59
2022/09/15 11:41:59;;;;;;;1.65;1.55;;;;;;;20.23;69.18;99389.47;5001970;28;20558;-58
2022/09/15 11:44:31;;;;;;;1.95;1.70;;;;;;;20.27;69.06;99401.31;5014951;28;20038;-59
2022/09/15 11:47:21;;;;;;;1.85;1.63;;;;;;;20.30;68.91;99398.31;5014769;28;20513;-59
2022/09/15 11:50:04;;;;;;;2.05;1.83;;;;;;;20.31;68.69;99391.97;5013384;28;20423;-59
2022/09/15 11:52:49;;;;;;;3.97;1.30;;;;;;;20.44;68.48;99399.31;5004356;28;20038;-59
2022/09/15 11:55:29;;;;;;;3.10;2.00;;;;;;;20.37;68.91;99393.91;4977718;28;20481;-59
2022/09/15 11:58:12;;;;;;;3.83;2.22;;;;;;;20.30;68.45;99371.78;4990986;28;20057;-59
2022/09/15 12:00:54;;;;;;;1.77;1.20;;;;;;;20.28;68.65;99389.72;4997098;28;20046;-59
2022/09/15 12:03:30;;;;;;;2.20;2.00;;;;;;;20.26;68.77;99389.91;5003029;28;20042;-59